Terminal Aerodrome Forecast
Issued by NWS

Home | Current Version | Previous Version | Text Only | Print | Product List | Glossary Off
Versions: 1 2 3 4 5 6 7 8 9 10 11 12 13 14 15 16 17 18 19 20 21 22 23 24 25 26 27 28 29 30 31 32 33

000
FTUS43 KLOT 252200 AAB
TAFORD
TAF AMD
KORD 252203Z 2522/2624 19012KT P6SM BKN200
     FM261400 21010G17KT P6SM SCT020 OVC150=

USA.gov is the U.S. government's official web portal to all federal, state and local government web resources and services.